Latest Weather Observations for Cooma Airport

IDN60801

Issued at 7:33 am EDT Thursday 22 February 2018 (issued every 30 minutes, with the page automatically refreshed every 10 minutes)

About weather observations | Map of weather stations | Latest weather observations for NSW | Other Formats
Station Details ID: 070217 Name: COOMA AIRPORT AWS Lat: -36.29 Lon: 148.97 Height: 930.0 m
Data from the previous 72 hours. | See also: Recent months at Cooma Airport
Date/Time
EDT
Temp
°C
App
Temp
°C
Dew
Point
°C
Rel
Hum
%
Delta-T
°C
Wind Press
QNH
hPa
Press
MSL
hPa
Rain since
9am
mm
Dir  Spd
km/h
Gust
km/h
Spd
kts
Gust
kts
22/07:30am 11.6 10.3 11.4 99 0.1 N 9 13 5 7 1019.2 1015.2 0.0
22/07:00am 11.4 10.1 11.1 98 0.2 NE 9 11 5 6 1018.6 1014.7 0.0
22/06:30am 11.5 10.2 11.2 98 0.2 NNE 9 11 5 6 1018.6 1014.7 0.0
22/06:00am 11.5 10.2 11.2 98 0.2 NNE 9 13 5 7 1018.5 1014.6 0.0
22/05:30am 11.5 10.6 11.2 98 0.2 NNE 7 11 4 6 1018.2 1014.2 0.0
22/05:00am 11.4 9.7 11.2 99 0.1 N 11 13 6 7 1018.2 1014.2 0.0
22/04:30am 11.3 9.9 10.8 97 0.3 NE 9 11 5 6 1018.4 1014.5 0.0
22/04:00am 11.5 11.1 11.0 97 0.3 N 4 9 2 5 1018.3 1014.3 0.0
22/03:30am 11.6 11.9 11.0 96 0.3 CALM 0 0 0 0 1018.3 1014.3 0.0
22/03:00am 11.5 11.7 10.7 95 0.4 CALM 0 4 0 2 1018.6 1014.7 0.0
22/02:30am 11.7 10.7 10.9 95 0.4 N 7 9 4 5 1018.8 1014.9 0.0
22/02:00am 11.8 12.0 10.4 91 0.8 CALM 0 6 0 3 1018.8 1014.9 0.0
22/01:30am 12.7 11.8 11.3 91 0.8 N 7 9 4 5 1019.0 1015.0 0.0
22/01:00am 12.3 12.6 11.0 92 0.7 CALM 0 7 0 4 1019.0 1015.0 0.0
22/12:30am 12.0 10.9 10.6 91 0.8 E 7 9 4 5 1019.1 1015.1 0.0
22/12:00am 12.0 11.0 10.9 93 0.6 NNE 7 9 4 5 1019.4 1015.5 0.0
 
Date/Time
EDT
Temp
°C
App
Temp
°C
Dew
Point
°C
Rel
Hum
%
Delta-T
°C
Wind Press
QNH
hPa
Press
MSL
hPa
Rain since
9am
mm
Dir  Spd
km/h
Gust
km/h
Spd
kts
Gust
kts
21/11:30pm 12.0 10.3 9.9 87 1.1 NNE 9 13 5 7 1019.3 1015.3 0.0
21/11:00pm 13.2 10.7 10.9 86 1.3 N 15 17 8 9 1019.5 1015.6 0.0
21/10:30pm 14.0 13.1 10.8 81 1.8 NNE 6 9 3 5 1019.4 1015.5 0.0
21/10:00pm 14.3 13.2 10.5 78 2.1 N 7 15 4 8 1019.4 1015.5 0.0
21/09:30pm 15.6 13.1 11.2 75 2.5 ENE 15 20 8 11 1018.8 1014.9 0.0
21/09:00pm 15.6 13.0 10.6 72 2.8 NE 15 19 8 10 1018.7 1014.8 0.0
21/08:30pm 16.7 14.1 10.8 68 3.3 ENE 15 19 8 10 1018.3 1014.3 0.0
21/08:00pm 18.0 15.1 10.9 63 4.0 ENE 17 20 9 11 1017.9 1013.9 0.0
21/07:30pm 19.0 16.0 10.8 59 4.6 ENE 17 24 9 13 1017.4 1013.5 0.0
21/07:00pm 19.6 15.6 10.6 56 5.1 ENE 22 28 12 15 1017.0 1013.0 0.0
21/06:30pm 20.8 16.4 10.3 51 6.0 E 24 30 13 16 1016.7 1012.7 0.0
21/06:00pm 23.1 19.3 6.0 33 9.1 NNE 15 20 8 11 1016.3 1012.3 0.0
21/05:30pm 23.7 19.1 5.6 31 9.6 NE 19 22 10 12 1016.5 1012.6 0.0
21/05:00pm 24.5 22.2 5.8 30 10.0 N 7 13 4 7 1016.5 1012.6 0.0
21/04:30pm 24.4 22.1 4.7 28 10.3 WNW 6 9 3 5 1017.1 1013.1 0.0
21/04:00pm 23.5 20.9 3.4 27 10.2 SW 6 15 3 8 1017.2 1013.2 0.0
21/03:30pm 23.4 20.4 3.9 28 10.0 S 9 17 5 9 1017.5 1013.6 0.0
21/03:00pm 24.4 21.4 4.2 27 10.5 E 9 17 5 9 1017.9 1013.9 0.0
21/02:30pm 23.4 20.9 4.9 30 9.7 E 7 11 4 6 1018.0 1014.0 0.0
21/02:00pm 22.7 19.4 6.5 35 8.7 ENE 13 20 7 11 1018.7 1014.8 0.0
21/01:30pm 21.7 18.6 5.6 35 8.4 ENE 11 19 6 10 1019.1 1015.1 0.0
21/01:00pm 20.8 18.1 5.6 37 7.9 ENE 9 17 5 9 1019.4 1015.5 0.0
21/12:30pm 19.5 16.1 5.9 41 7.1 NE 13 22 7 12 1019.5 1015.6 0.0
21/12:00pm 18.8 15.0 6.0 43 6.6 NE 15 20 8 11 1019.8 1015.9 0.0
21/11:30am 17.0 12.7 6.8 51 5.3 NE 19 28 10 15 1020.0 1016.1 0.0
21/11:00am 16.2 12.0 7.4 56 4.6 NE 19 26 10 14 1020.3 1016.3 0.0
21/10:30am 15.0 10.5 7.1 59 4.1 NE 20 26 11 14 1020.6 1016.7 0.0
21/10:00am 13.7 9.2 6.8 63 3.5 NNE 20 26 11 14 1020.8 1016.9 0.0
21/09:30am 12.0 7.0 6.3 68 2.8 NNE 22 28 12 15 1020.6 1016.7 0.0
21/09:00am 11.0 6.3 6.2 72 2.4 NNE 20 28 11 15 1020.6 1016.7 0.0
21/08:30am 10.5 5.5 6.5 76 2.0 NNE 22 28 12 15 1020.6 1016.7 0.0
21/08:00am 9.2 4.4 5.8 79 1.6 N 20 26 11 14 1020.4 1016.5 0.0
21/07:37am 8.8 5.2 6.6 86 1.1 N 15 20 8 11 1020.3 1016.3 0.0
21/07:30am 8.4 4.4 6.5 88 0.9 NNE 17 20 9 11 1020.3 1016.3 0.0
21/07:00am 8.3 4.2 6.4 88 0.9 NNE 17 24 9 13 1020.3 1016.3 0.0
21/06:39am 8.1 4.5 6.7 91 0.7 N 15 20 8 11 1020.5 1016.6 0.0
21/06:30am 7.4 3.7 6.2 92 0.6 NNE 15 20 8 11 1020.5 1016.6 0.0
21/06:00am 8.4 5.2 6.9 90 0.7 NNE 13 17 7 9 1020.3 1016.3 0.0
21/05:30am 8.6 5.9 7.2 91 0.7 NNE 11 15 6 8 1020.3 1016.3 0.0
21/05:00am 8.7 5.3 7.5 92 0.6 NNE 15 17 8 9 1020.3 1016.3 0.0
21/04:30am 8.8 5.8 7.6 92 0.6 NNE 13 17 7 9 1020.3 1016.3 0.0
21/04:00am 8.9 5.6 8.0 94 0.5 NNE 15 19 8 10 1020.0 1016.1 0.0
21/03:46am 9.2 5.8 7.8 91 0.7 NNE 15 19 8 10 1020.2 1016.2 0.0
21/03:30am 9.2 6.3 8.1 93 0.6 NNE 13 17 7 9 1020.3 1016.3 0.0
21/03:00am 9.3 6.1 8.4 94 0.5 N 15 19 8 10 1020.8 1016.9 0.0
21/02:30am 9.3 6.2 8.8 97 0.3 N 15 19 8 10 1021.0 1017.1 0.0
21/02:00am 8.8 6.8 8.7 99 0.1 NNE 9 15 5 8 1021.3 1017.3 0.0
21/01:30am 8.3 5.0 8.2 99 0.1 NE 15 17 8 9 1021.3 1017.3 0.0
21/01:00am 7.8 4.8 7.8 100 0.0 NNE 13 15 7 8 1021.4 1017.5 0.0
21/12:33am 6.8 3.2 6.7 99 0.0 NE 15 15 8 8 1021.5 1017.6 0.0
21/12:30am 6.7 3.4 6.6 99 0.0 NE 13 15 7 8 1021.5 1017.6 0.0
21/12:00am 6.0 3.0 5.9 99 0.0 NE 11 13 6 7 1021.7 1017.8 0.0
 
Date/Time
EDT
Temp
°C
App
Temp
°C
Dew
Point
°C
Rel
Hum
%
Delta-T
°C
Wind Press
QNH
hPa
Press
MSL
hPa
Rain since
9am
mm
Dir  Spd
km/h
Gust
km/h
Spd
kts
Gust
kts
20/11:30pm 5.8 2.7 5.7 99 0.0 NNE 11 11 6 6 1021.8 1017.9 0.0
20/11:00pm 6.6 3.6 6.2 97 0.2 NE 11 13 6 7 1021.8 1017.9 0.0
20/10:30pm 7.1 4.5 6.2 94 0.4 NE 9 11 5 6 1021.9 1018.0 0.0
20/10:00pm 8.6 5.5 7.2 91 0.7 NNE 13 17 7 9 1022.1 1018.2 0.0
20/09:30pm 9.5 6.0 7.4 87 1.1 NNE 15 19 8 10 1021.9 1018.0 0.0
20/09:00pm 10.6 6.5 7.7 82 1.5 NE 19 24 10 13 1021.6 1017.7 0.0
20/08:30pm 11.4 8.0 7.5 77 2.0 ENE 15 19 8 10 1021.1 1017.2 0.0
20/08:00pm 12.6 8.7 7.3 70 2.7 ENE 17 20 9 11 1020.9 1017.0 0.0
20/07:30pm 14.1 9.7 7.4 64 3.5 ENE 20 26 11 14 1020.8 1016.9 0.0
20/07:00pm 15.6 11.9 7.9 60 4.0 NE 17 22 9 12 1020.6 1016.7 0.0
20/06:30pm 16.4 11.7 7.6 56 4.6 ENE 22 28 12 15 1020.6 1016.7 0.0
20/06:00pm 16.7 12.0 7.9 56 4.7 NE 22 28 12 15 1020.7 1016.8 0.0
20/05:30pm 17.3 12.8 7.1 51 5.3 NNE 20 32 11 17 1020.7 1016.8 0.0
20/05:00pm 17.5 12.9 8.1 54 5.0 NNE 22 33 12 18 1020.6 1016.7 0.0
20/04:30pm 18.8 16.2 7.9 49 5.9 E 11 22 6 12 1020.8 1016.9 0.0
20/04:00pm 18.4 14.0 7.2 48 5.9 ENE 20 30 11 16 1020.9 1017.0 0.0
20/03:30pm 19.0 15.2 7.4 47 6.2 E 17 30 9 16 1020.9 1017.0 0.0
20/03:00pm 19.2 15.5 7.9 48 6.1 NE 17 22 9 12 1021.1 1017.2 0.0
20/02:30pm 17.7 15.3 6.9 49 5.7 NE 9 19 5 10 1021.6 1017.7 0.0
20/02:00pm 16.7 14.6 6.5 51 5.2 S 7 11 4 6 1021.9 1018.0 0.0
20/01:30pm 16.0 13.8 6.4 53 4.9 SW 7 11 4 6 1022.0 1018.1 0.0
20/01:00pm 15.1 12.6 5.0 51 5.0 ESE 7 13 4 7 1022.5 1018.6 0.0
20/12:30pm 13.5 9.7 5.7 59 3.9 S 15 22 8 12 1022.7 1018.8 0.0
20/12:00pm 13.3 10.8 6.6 64 3.4 SSE 9 17 5 9 1023.0 1019.1 0.0
20/11:30am 12.1 7.9 5.5 64 3.2 S 17 22 9 12 1023.1 1019.2 0.0
20/11:00am 11.2 7.7 5.5 68 2.8 SE 13 17 7 9 1023.6 1019.7 0.0
20/10:30am 10.7 7.1 4.8 67 2.8 SE 13 19 7 10 1023.9 1020.0 0.0
20/10:00am 10.1 6.7 6.1 76 1.9 S 13 19 7 10 1024.2 1020.4 0.0
20/09:30am 9.8 5.0 5.6 75 2.0 SE 20 24 11 13 1024.1 1020.2 0.0
20/09:00am 9.6 5.1 6.3 80 1.6 SE 19 22 10 12 1023.7 1019.8 3.4
20/08:30am 9.5 5.1 6.6 82 1.4 SE 19 24 10 13 1023.4 1019.6 3.4
20/08:00am 9.9 6.5 7.7 86 1.1 SE 15 20 8 11 1023.1 1019.2 3.4
20/07:30am 9.6 6.6 7.5 87 1.1 SSE 13 19 7 10 1022.8 1018.9 3.4
20/07:00am 9.3 6.4 8.1 92 0.6 SSE 13 19 7 10 1022.5 1018.6 3.4
20/06:30am 9.1 6.9 8.0 93 0.6 S 9 13 5 7 1022.0 1018.1 3.4
20/06:00am 9.1 6.6 8.0 93 0.6 SSE 11 15 6 8 1021.6 1017.7 3.4
20/05:30am 9.6 6.0 8.4 92 0.6 SE 17 20 9 11 1021.5 1017.6 3.4
20/05:00am 10.1 6.1 8.9 92 0.6 SE 20 26 11 14 1021.3 1017.3 3.4
20/04:30am 10.8 8.3 9.7 93 0.6 SE 13 19 7 10 1021.0 1017.1 3.4
20/04:21am 10.9 8.2 10.3 96 0.3 SSE 15 20 8 11 1020.9 1017.0 3.4
20/04:00am 10.7 9.1 10.1 96 0.3 S 9 11 5 6 1020.5 1016.6 3.4
20/03:30am 11.1 8.3 9.9 92 0.6 SE 15 19 8 10 1020.6 1016.7 3.4
20/03:00am 11.3 9.3 10.2 93 0.6 ESE 11 17 6 9 1020.8 1016.9 3.4
20/02:30am 11.5 8.9 10.7 95 0.4 ESE 15 20 8 11 1020.9 1017.0 3.4
20/02:28am 11.5 8.9 10.7 95 0.4 ESE 15 19 8 10 1021.0 1017.1 3.4
20/02:15am 11.6 9.8 10.8 95 0.4 SE 11 17 6 9 1021.1 1017.2 3.4
20/02:00am 12.1 10.5 10.3 89 1.0 ESE 9 13 5 7 1021.3 1017.3 3.4
20/01:30am 12.2 9.9 10.6 90 0.9 SE 13 19 7 10 1021.1 1017.2 3.4
20/01:00am 12.5 10.3 10.7 89 1.0 SE 13 20 7 11 1021.4 1017.5 3.4
20/12:30am 12.5 10.4 11.1 91 0.8 SSE 13 17 7 9 1021.5 1017.6 3.4
20/12:26am 12.6 10.5 11.2 91 0.8 SSE 13 17 7 9 1021.5 1017.6 3.4
20/12:00am 12.7 10.6 11.3 91 0.8 SSE 13 17 7 9 1021.6 1017.7 3.4
 
Date/Time
EDT
Temp
°C
App
Temp
°C
Dew
Point
°C
Rel
Hum
%
Delta-T
°C
Wind Press
QNH
hPa
Press
MSL
hPa
Rain since
9am
mm
Dir  Spd
km/h
Gust
km/h
Spd
kts
Gust
kts
19/11:30pm 12.8 11.5 11.4 91 0.8 SE 9 15 5 8 1021.4 1017.5 3.4
19/11:15pm 12.9 10.9 11.6 92 0.7 SE 13 20 7 11 1021.5 1017.6 3.4
19/11:00pm 13.0 10.7 11.6 91 0.8 SE 15 20 8 11 1021.3 1017.3 3.4
19/10:55pm 13.1 10.8 11.8 92 0.7 SE 15 20 8 11 1021.3 1017.3 3.4
19/10:30pm 13.7 12.0 12.6 93 0.6 SE 13 19 7 10 1021.1 1017.2 3.4
19/10:02pm 14.0 13.0 13.5 97 0.3 SE 11 19 6 10 1020.9 1017.0 3.4
19/10:00pm 14.0 12.6 13.5 97 0.3 SE 13 19 7 10 1020.9 1017.0 3.4
19/09:34pm 14.0 12.4 13.8 99 0.1 SSE 15 20 8 11 1020.5 1016.6 3.4
19/09:30pm 14.0 12.0 13.8 99 0.1 SSE 17 22 9 12 1020.5 1016.6 3.4
19/09:24pm 14.1 12.1 13.9 99 0.1 SSE 17 22 9 12 1020.4 1016.5 3.4
19/09:23pm 14.0 12.0 13.8 99 0.1 SSE 17 22 9 12 1020.4 1016.5 3.4
19/09:13pm 14.1 12.1 13.9 99 0.1 SSE 17 22 9 12 1020.3 1016.3 3.4
19/09:12pm 14.2 12.2 14.0 99 0.1 SSE 17 22 9 12 1020.2 1016.2 3.4
19/09:10pm 14.2 12.6 14.0 99 0.1 SE 15 22 8 12 1020.2 1016.2 3.4
19/09:00pm 14.3 12.4 14.1 99 0.1 SE 17 24 9 13 1019.9 1016.0 3.4
19/08:57pm 14.3 12.4 14.1 99 0.1 SE 17 24 9 13 1019.9 1016.0 3.2
19/08:53pm 14.5 13.0 14.3 99 0.1 SE 15 20 8 11 1019.8 1015.9 3.2
19/08:49pm 14.5 13.0 14.3 99 0.1 SE 15 20 8 11 1019.8 1015.9 3.2
19/08:30pm 14.6 13.5 14.4 99 0.1 SSE 13 20 7 11 1019.6 1015.7 3.2
19/08:25pm 14.5 13.4 14.3 99 0.1 SSE 13 20 7 11 1019.5 1015.6 3.2
19/08:14pm 14.5 13.8 14.3 99 0.1 ESE 11 15 6 8 1019.4 1015.5 3.0
19/08:00pm 14.4 12.5 14.1 98 0.2 SE 17 24 9 13 1019.3 1015.3 3.0
19/07:49pm 14.7 12.0 13.4 92 0.8 ESE 20 30 11 16 1019.2 1015.2 2.4
19/07:30pm 16.3 13.8 12.3 77 2.3 ESE 17 22 9 12 1018.8 1014.9 2.4
19/07:00pm 16.9 15.5 12.2 74 2.7 E 11 15 6 8 1018.3 1014.3 2.4
19/06:30pm 17.3 15.5 12.2 72 2.9 E 13 19 7 10 1018.3 1014.3 2.4
19/06:00pm 17.4 16.6 11.7 69 3.3 E 7 11 4 6 1018.3 1014.3 2.4
19/05:30pm 17.0 14.7 11.7 71 3.0 E 15 20 8 11 1018.2 1014.2 2.4
19/05:00pm 16.6 13.7 12.2 75 2.5 ESE 19 26 10 14 1018.1 1014.1 2.4
19/04:30pm 16.8 13.7 12.1 74 2.7 E 20 26 11 14 1018.2 1014.2 2.4
19/04:00pm 16.9 14.4 12.4 75 2.6 E 17 22 9 12 1018.2 1014.2 2.4
19/03:30pm 16.7 13.7 12.7 77 2.3 ESE 20 26 11 14 1018.1 1014.1 2.4
19/03:00pm 16.8 14.1 12.9 78 2.3 SE 19 24 10 13 1018.1 1014.1 2.4
19/02:30pm 17.1 14.9 13.4 79 2.2 SSE 17 20 9 11 1018.2 1014.2 2.4
19/02:00pm 17.3 15.0 13.0 76 2.5 SE 17 24 9 13 1018.2 1014.2 2.4
19/01:30pm 16.6 14.4 14.4 87 1.3 SE 19 28 10 15 1018.3 1014.3 2.4
19/01:00pm 16.7 14.7 14.0 84 1.6 SSE 17 22 9 12 1018.3 1014.3 2.4
19/12:30pm 16.3 14.1 14.3 88 1.2 SSE 19 26 10 14 1018.6 1014.7 2.2
19/12:00pm 15.7 14.0 14.6 93 0.7 SSE 17 22 9 12 1018.8 1014.9 2.2
19/11:58am 15.7 13.9 14.4 92 0.8 SSE 17 22 9 12 1018.8 1014.9 2.2
19/11:38am 15.8 14.8 14.7 93 0.7 SSE 13 17 7 9 1018.7 1014.8 2.0
19/11:30am 15.9 14.9 14.6 92 0.8 SSE 13 19 7 10 1018.6 1014.7 2.0
19/11:29am 15.8 14.8 14.5 92 0.8 SSE 13 19 7 10 1018.6 1014.7 2.0
19/11:00am 15.6 13.1 14.1 91 0.9 SSE 20 26 11 14 1018.4 1014.5 1.4
19/10:55am 15.7 13.1 13.9 89 1.1 SSE 20 28 11 15 1018.4 1014.5 1.4
19/10:34am 15.6 13.7 15.1 97 0.3 SSE 19 26 10 14 1018.3 1014.3 1.4
19/10:30am 15.4 13.3 14.6 95 0.5 SSE 19 26 10 14 1018.2 1014.2 1.4
19/10:18am 15.1 13.4 14.8 98 0.2 SSE 17 24 9 13 1018.4 1014.5 1.2
19/10:07am 15.1 12.7 13.8 92 0.8 S 19 28 10 15 1018.4 1014.5 0.2
19/10:00am 15.2 12.1 13.4 89 1.0 S 22 30 12 16 1018.3 1014.3 0.0
19/09:30am 15.4 13.3 14.6 95 0.5 S 19 24 10 13 1018.1 1014.1 0.0
19/09:00am 15.1 12.5 14.9 99 0.1 S 22 30 12 16 1017.8 1013.8 0.2
19/08:30am 14.8 12.5 14.6 99 0.1 SSW 20 28 11 15 1017.9 1013.9 0.0
19/08:00am 14.7 12.5 14.5 99 0.1 SSW 19 22 10 12 1017.5 1013.6 0.0
19/07:44am 14.7 12.5 14.5 99 0.1 SSW 19 26 10 14 1017.3 1013.3 0.0

Other Formats:

Comma delimited format used in spreadsheet applications
http://www.bom.gov.au/fwo/IDN60801/IDN60801.94921.axf

JavaScript Object Notation format (JSON) in row-major order
http://www.bom.gov.au/fwo/IDN60801/IDN60801.94921.json